Skip Navigation Links
NOAA logo - Click to go to the NOAA homepage
NOAA's National Weather Service
Alaska Aviation Weather Unit
  NWS logo - Click to go to the NWS homepage
Left Navbar Graphic     09 AKDT = 17 GMT

   
NOAA is celebrating 200 years of science, service, and stewardship. Visit the NOAA 200th celebration Web site to learn more.
USA.gov is the U.S. Government's official Web portal to all Federal, state and local government Web resources and services.
Facebook
NWS on Facebook

Important Change Regarding the AAWU Web Presence

 

Over the last several months, the AAWU has been working to navigate its webpages to a nationally supported server. Security, as well as other needs, have necessitated the change.  In the process, we have made an effort to enhance the functionality of our website, as well as some of our products. As of June 20, 2017, aawu.arh.noaa.gov will be discontinued. The new AAWU web address is weather.gov/aawu. It is now live and will run in-parallel with the old site until it is discontinued. Please send any feedback or questions regarding the new webpages to nws.ar.aawu.webauthors@noaa.gov.  Thank you for your patience during this time of transition.
AAWU Home :: Display TAF Add Bookmark
METAR PAWS 231156Z AUTO 34004KT 10SM OVC038 07/02 A3001 RMK AO2 SLP178
     70004 T00670022 10100 20067 50006=

METAR PAWS 231256Z AUTO 00000KT 10SM SCT029 BKN036 OVC048 06/02
 A3001 RMK AO2 SLP176 T00610022=

SPECI PAWS 231352Z AUTO 00000KT 10SM BKN024 OVC036 06/03 A3000 RMK
 AO2 RAB36E49 P0000=

METAR PAWS 231356Z AUTO 00000KT 10SM BKN024 OVC041 06/03 A3000 RMK AO2
     RAB36E49 SLP175 P0000 T00560028=

SPECI PAWS 231428Z AUTO 00000KT 10SM SCT024 BKN031 OVC070 06/03 A3001
     RMK AO2=

METAR PAWS 231456Z AUTO 00000KT 10SM FEW028 BKN034 OVC045 06/03 A3001
     RMK AO2 SLP177 60000 T00610033 53000=

METAR PAWS 231656Z AUTO 00000KT 10SM BKN024 OVC031 08/02 A3001 RMK
 AO2 SLP179 T00780022=


NOAA's National Weather Service
Alaska Aviation Weather Unit
6930 Sand Lake Road
Anchorage, AK 99502-1845
Disclaimer
Credits
Glossary
Privacy Policy
About Us
Career Opportunities
Contact AAWU Internet Services Site last modified: April, 17th 2012